Time;durP1;ratioP1;P1;durP2;ratioP2;P2;SDS_P1;SDS_P2;PMS_P1;PMS_P2;Temp;Humidity;BMP_temperature;BMP_pressure;BME280_temperature;BME280_humidity;BME280_pressure;Samples;Min_cycle;Max_cycle;Signal;HPM_P1;HPM_P2
2023/09/10 00:01:32;;;;;;;11.90;10.23;;;20.80;99.90;;;;;;4973863;28;20026;-44
2023/09/10 00:03:57;;;;;;;11.70;10.40;;;20.80;99.90;;;;;;4973725;28;20023;-45
2023/09/10 00:06:23;;;;;;;12.77;9.98;;;20.80;99.90;;;;;;4990913;28;20552;-46
2023/09/10 00:08:48;;;;;;;13.43;10.13;;;20.80;99.90;;;;;;4991938;28;20035;-46
2023/09/10 00:11:14;;;;;;;12.50;9.88;;;20.60;99.90;;;;;;4993374;28;20061;-45
2023/09/10 00:13:39;;;;;;;18.23;10.70;;;20.60;99.90;;;;;;4991569;28;20054;-45
2023/09/10 00:16:05;;;;;;;16.90;11.98;;;20.50;99.90;;;;;;4993032;28;20031;-45
2023/09/10 00:18:30;;;;;;;13.13;9.85;;;20.50;99.90;;;;;;4993025;28;20023;-46
2023/09/10 00:20:56;;;;;;;13.75;10.20;;;20.50;99.90;;;;;;4993038;28;20058;-46
2023/09/10 00:23:22;;;;;;;13.57;9.88;;;20.40;99.90;;;;;;4992879;28;20027;-48
2023/09/10 00:25:47;;;;;;;15.63;10.68;;;20.30;99.90;;;;;;4992594;28;20062;-46
2023/09/10 00:28:13;;;;;;;17.40;10.00;;;20.30;99.90;;;;;;4992576;28;20030;-46
2023/09/10 00:30:38;;;;;;;15.38;9.82;;;20.30;99.90;;;;;;4993078;28;20034;-45
2023/09/10 00:33:04;;;;;;;10.20;9.20;;;20.30;99.90;;;;;;4991608;28;20026;-46
2023/09/10 00:35:30;;;;;;;10.23;9.00;;;20.30;99.90;;;;;;4992382;28;20046;-46
2023/09/10 00:37:56;;;;;;;13.50;10.30;;;20.30;99.90;;;;;;4991637;28;20042;-46
2023/09/10 00:40:22;;;;;;;13.68;11.88;;;20.30;99.90;;;;;;4992734;28;20029;-45
2023/09/10 00:42:47;;;;;;;14.18;12.48;;;20.30;99.90;;;;;;4992720;28;20026;-46
2023/09/10 00:45:13;;;;;;;13.05;11.85;;;20.30;99.90;;;;;;4992532;28;20034;-46
2023/09/10 00:47:45;;;;;;;13.07;10.35;;;20.30;99.90;;;;;;4992594;28;20026;-48
2023/09/10 00:50:10;;;;;;;11.80;10.55;;;20.20;99.90;;;;;;4992684;28;20101;-50
2023/09/10 00:52:53;;;;;;;11.35;9.40;;;20.10;99.90;;;;;;4992803;28;20027;-46
2023/09/10 00:55:21;;;;;;;12.80;10.27;;;20.10;99.90;;;;;;4956353;28;1010965;-47
2023/09/10 00:57:46;;;;;;;11.45;9.98;;;20.00;99.90;;;;;;4993457;28;20041;-46
2023/09/10 01:00:13;;;;;;;9.82;8.63;;;19.90;99.90;;;;;;4993298;28;20056;-47
2023/09/10 01:02:43;;;;;;;18.40;11.20;;;19.80;99.90;;;;;;4993157;28;20108;-50
2023/09/10 01:05:09;;;;;;;13.57;11.27;;;19.80;99.90;;;;;;4992875;28;20026;-50
2023/09/10 01:07:35;;;;;;;11.80;10.10;;;19.80;99.90;;;;;;4993083;28;20053;-49
2023/09/10 01:10:01;;;;;;;16.70;10.57;;;19.70;99.90;;;;;;4993053;28;20533;-45
2023/09/10 01:12:43;;;;;;;12.60;10.52;;;19.70;99.90;;;;;;4992940;28;20050;-46
2023/09/10 01:15:27;;;;;;;12.25;10.27;;;19.60;99.90;;;;;;4992561;28;20409;-46
2023/09/10 01:18:03;;;;;;;13.05;9.73;;;19.60;99.90;;;;;;4993022;28;20014;-47
2023/09/10 01:20:39;;;;;;;10.35;9.35;;;19.60;99.90;;;;;;4993007;28;20384;-46
2023/09/10 01:23:08;;;;;;;17.42;10.68;;;19.60;99.90;;;;;;4992948;28;20101;-46
2023/09/10 01:25:35;;;;;;;14.00;10.52;;;19.60;99.90;;;;;;4992182;28;20150;-50
2023/09/10 01:28:04;;;;;;;13.93;10.20;;;19.60;99.90;;;;;;4992771;28;20050;-47
2023/09/10 01:30:31;;;;;;;14.00;12.05;;;19.60;99.90;;;;;;4992451;28;20026;-46
2023/09/10 01:33:17;;;;;;;12.02;10.13;;;19.50;99.90;;;;;;4992679;28;20031;-48
2023/09/10 01:36:07;;;;;;;13.18;11.27;;;19.50;99.90;;;;;;4992266;28;20433;-49
2023/09/10 01:39:02;;;;;;;15.95;10.95;;;19.50;99.90;;;;;;4992626;28;20023;-48
2023/09/10 01:41:31;;;;;;;12.68;10.55;;;19.50;99.90;;;;;;4992500;28;20018;-49
2023/09/10 01:43:58;;;;;;;10.93;9.85;;;19.60;99.90;;;;;;4992276;28;20030;-46
2023/09/10 01:46:25;;;;;;;15.32;10.23;;;19.60;99.90;;;;;;4992677;28;20077;-47
2023/09/10 01:48:50;;;;;;;10.50;9.25;;;19.60;99.90;;;;;;4992577;28;20027;-48
2023/09/10 01:51:19;;;;;;;12.50;10.75;;;19.60;99.90;;;;;;4992264;28;20414;-46
2023/09/10 01:53:46;;;;;;;14.60;10.15;;;19.60;99.90;;;;;;4992001;28;20027;-46
2023/09/10 01:56:12;;;;;;;10.48;9.35;;;19.60;99.90;;;;;;4992259;28;20045;-46
2023/09/10 01:58:38;;;;;;;11.57;10.18;;;19.60;99.90;;;;;;4992267;28;20026;-47
2023/09/10 02:01:05;;;;;;;14.45;11.43;;;19.60;99.90;;;;;;4992348;28;20390;-46
2023/09/10 02:03:31;;;;;;;15.55;12.43;;;19.60;99.90;;;;;;4992040;28;20621;-46
2023/09/10 02:05:58;;;;;;;16.27;12.18;;;19.60;99.90;;;;;;4992067;28;20116;-48
2023/09/10 02:08:24;;;;;;;14.05;11.73;;;19.60;99.90;;;;;;4992247;28;20027;-48
2023/09/10 02:10:50;;;;;;;21.17;13.18;;;19.60;99.90;;;;;;4992138;28;20398;-49
2023/09/10 02:13:15;;;;;;;27.73;14.05;;;19.50;99.90;;;;;;4992188;28;20401;-47
2023/09/10 02:15:41;;;;;;;13.77;12.32;;;19.50;99.90;;;;;;4991796;28;20022;-46
2023/09/10 02:18:06;;;;;;;16.08;13.38;;;19.50;99.90;;;;;;4992093;28;20478;-51
2023/09/10 02:20:36;;;;;;;16.23;12.85;;;19.40;99.90;;;;;;4992134;28;20030;-46
2023/09/10 02:23:02;;;;;;;13.63;11.52;;;19.30;99.90;;;;;;4992143;28;20022;-50
2023/09/10 02:25:27;;;;;;;13.65;11.90;;;19.30;99.90;;;;;;4991692;28;20477;-47
2023/09/10 02:27:53;;;;;;;12.45;10.50;;;19.10;99.90;;;;;;4992164;28;20041;-46
2023/09/10 02:30:18;;;;;;;13.00;10.90;;;18.90;99.90;;;;;;4991667;28;20031;-48
2023/09/10 02:32:44;;;;;;;12.05;10.88;;;18.80;99.90;;;;;;4991990;28;20029;-47
2023/09/10 02:35:09;;;;;;;14.35;11.27;;;18.70;99.90;;;;;;4990288;28;20030;-47
2023/09/10 02:37:35;;;;;;;12.38;11.15;;;18.50;99.90;;;;;;4994297;28;20121;-46
2023/09/10 02:40:00;;;;;;;11.13;10.02;;;18.60;99.90;;;;;;4995899;28;20033;-46
2023/09/10 02:42:26;;;;;;;13.10;11.68;;;18.60;99.90;;;;;;4995821;28;20045;-47
2023/09/10 02:44:51;;;;;;;17.90;13.30;;;18.60;99.90;;;;;;4995412;28;20037;-47
2023/09/10 02:47:17;;;;;;;15.15;13.27;;;18.50;99.90;;;;;;4995743;28;20062;-48
2023/09/10 02:49:42;;;;;;;15.75;13.30;;;18.50;99.90;;;;;;4995769;28;20108;-51
2023/09/10 02:52:07;;;;;;;15.07;12.38;;;18.40;99.90;;;;;;4994452;28;20030;-47
2023/09/10 02:54:36;;;;;;;12.50;11.20;;;18.40;99.90;;;;;;4995181;28;20037;-51
2023/09/10 02:57:02;;;;;;;16.30;11.32;;;18.40;99.90;;;;;;4995642;28;20067;-48
2023/09/10 02:59:28;;;;;;;15.07;12.35;;;18.50;99.90;;;;;;4995875;28;20038;-47
2023/09/10 03:01:54;;;;;;;18.55;14.27;;;18.50;99.90;;;;;;4995748;28;20018;-52
2023/09/10 03:04:20;;;;;;;21.02;14.48;;;18.60;99.90;;;;;;4995436;28;20058;-47
2023/09/10 03:06:47;;;;;;;17.08;14.15;;;18.70;99.90;;;;;;4994256;28;20108;-48
2023/09/10 03:09:14;;;;;;;15.00;13.40;;;18.70;99.90;;;;;;4995476;28;20027;-46
2023/09/10 03:11:41;;;;;;;17.67;14.25;;;18.80;99.90;;;;;;4995675;28;20109;-49
2023/09/10 03:14:07;;;;;;;26.88;14.40;;;18.80;99.90;;;;;;4995564;28;20034;-48
2023/09/10 03:16:34;;;;;;;15.38;13.65;;;18.80;99.90;;;;;;4995349;28;20026;-46
2023/09/10 03:19:00;;;;;;;15.00;13.32;;;18.70;99.90;;;;;;4995883;28;20050;-46
2023/09/10 03:21:26;;;;;;;14.15;12.43;;;18.50;99.90;;;;;;4995840;28;20521;-48
2023/09/10 03:23:52;;;;;;;14.70;12.35;;;18.30;99.90;;;;;;4994948;28;20032;-46
2023/09/10 03:26:17;;;;;;;14.80;12.65;;;18.20;99.90;;;;;;4993819;28;20452;-48
2023/09/10 03:28:43;;;;;;;13.95;11.85;;;18.00;99.90;;;;;;4994670;28;20046;-47
2023/09/10 03:31:09;;;;;;;14.48;12.88;;;18.10;99.90;;;;;;4995020;28;20023;-49
2023/09/10 03:33:34;;;;;;;15.05;11.98;;;18.00;99.90;;;;;;4994847;28;20027;-49
2023/09/10 03:36:00;;;;;;;16.83;13.57;;;18.00;99.90;;;;;;4994502;28;20027;-48
2023/09/10 03:38:25;;;;;;;18.20;12.40;;;17.90;99.90;;;;;;4993451;28;20022;-48
2023/09/10 03:40:51;;;;;;;14.93;12.98;;;17.80;99.90;;;;;;4994677;28;20026;-48
2023/09/10 03:43:16;;;;;;;16.45;13.02;;;17.80;99.90;;;;;;4994695;28;20022;-51
2023/09/10 03:45:42;;;;;;;14.38;12.50;;;17.70;99.90;;;;;;4994351;28;20105;-47
2023/09/10 03:48:08;;;;;;;14.50;12.50;;;17.50;99.90;;;;;;4994454;28;20081;-49
2023/09/10 03:50:35;;;;;;;15.48;13.88;;;17.50;99.90;;;;;;4994690;28;20061;-46
2023/09/10 03:53:00;;;;;;;18.20;14.82;;;17.50;99.90;;;;;;4994584;28;20101;-48
2023/09/10 03:55:26;;;;;;;14.55;13.05;;;17.60;99.90;;;;;;4993936;28;20478;-48
2023/09/10 03:57:51;;;;;;;16.58;13.23;;;17.60;99.90;;;;;;4994460;28;20026;-50
2023/09/10 04:00:19;;;;;;;16.60;13.35;;;17.60;99.90;;;;;;4994437;28;20210;-47
2023/09/10 04:02:45;;;;;;;19.50;13.15;;;17.50;99.90;;;;;;4994529;28;20018;-48
2023/09/10 04:05:11;;;;;;;18.65;12.93;;;17.50;99.90;;;;;;4976915;28;20494;-47
2023/09/10 04:07:37;;;;;;;20.30;13.63;;;17.50;99.90;;;;;;4994207;28;20026;-45
2023/09/10 04:10:04;;;;;;;14.60;12.98;;;17.40;99.90;;;;;;4994216;28;20145;-46
2023/09/10 04:12:29;;;;;;;14.48;12.98;;;17.40;99.90;;;;;;4994232;28;20058;-45
2023/09/10 04:14:54;;;;;;;14.50;13.00;;;17.50;99.90;;;;;;4993928;28;20430;-49
2023/09/10 04:17:20;;;;;;;15.35;12.93;;;17.50;99.90;;;;;;4994115;28;20085;-50
2023/09/10 04:19:45;;;;;;;20.40;13.90;;;17.60;99.90;;;;;;4994467;28;20339;-46
2023/09/10 04:22:11;;;;;;;20.98;12.38;;;17.70;99.90;;;;;;4993958;28;20022;-46
2023/09/10 04:24:37;;;;;;;14.73;13.27;;;17.70;99.90;;;;;;4993612;28;20030;-46
2023/09/10 04:27:03;;;;;;;17.13;14.77;;;17.80;99.90;;;;;;4993911;28;20033;-48
2023/09/10 04:29:29;;;;;;;15.25;13.73;;;17.90;99.90;;;;;;4993736;28;20529;-48
2023/09/10 04:31:54;;;;;;;18.63;13.77;;;17.90;99.90;;;;;;4993873;28;20037;-47
2023/09/10 04:34:20;;;;;;;15.05;13.48;;;17.90;99.90;;;;;;4993364;28;20221;-46
2023/09/10 04:36:46;;;;;;;17.17;12.93;;;17.90;99.90;;;;;;4993627;28;20037;-46
2023/09/10 04:39:11;;;;;;;14.60;13.10;;;17.70;99.90;;;;;;4993701;28;20022;-46
2023/09/10 04:41:37;;;;;;;15.40;13.23;;;17.60;99.90;;;;;;4992435;28;20116;-48
2023/09/10 04:44:03;;;;;;;16.83;14.02;;;17.50;99.90;;;;;;4993320;28;20026;-47
2023/09/10 04:46:29;;;;;;;21.05;14.27;;;17.40;99.90;;;;;;4993439;28;20026;-47
2023/09/10 04:48:57;;;;;;;14.65;12.70;;;17.40;99.90;;;;;;4993399;28;20030;-45
2023/09/10 04:51:23;;;;;;;14.10;12.32;;;17.30;99.90;;;;;;4993401;28;20093;-48
2023/09/10 04:53:49;;;;;;;15.40;13.02;;;17.30;99.90;;;;;;4993062;28;20018;-48
2023/09/10 04:56:14;;;;;;;14.18;12.77;;;17.30;99.90;;;;;;4993129;28;20078;-47
2023/09/10 04:58:40;;;;;;;15.13;13.52;;;17.30;99.90;;;;;;4992227;28;20026;-49
2023/09/10 05:01:05;;;;;;;17.15;13.88;;;17.30;99.90;;;;;;4991585;28;20076;-46
2023/09/10 05:03:31;;;;;;;15.40;13.43;;;17.30;99.90;;;;;;4993140;28;20486;-49
2023/09/10 05:06:01;;;;;;;16.75;14.15;;;17.40;99.90;;;;;;4992904;28;20037;-46
2023/09/10 05:08:27;;;;;;;15.43;13.85;;;17.50;99.90;;;;;;4993116;28;20026;-52
2023/09/10 05:10:53;;;;;;;16.83;13.48;;;17.60;99.90;;;;;;4993035;28;20034;-50
2023/09/10 05:13:19;;;;;;;19.70;14.40;;;17.70;99.90;;;;;;4993007;28;20066;-50
2023/09/10 05:15:46;;;;;;;19.27;14.98;;;17.80;99.90;;;;;;4992639;28;20072;-47
2023/09/10 05:18:12;;;;;;;18.88;14.77;;;17.90;99.90;;;;;;4992852;28;20026;-48
2023/09/10 05:20:37;;;;;;;22.88;15.07;;;17.80;99.90;;;;;;4992890;28;20038;-48
2023/09/10 05:23:03;;;;;;;21.10;14.80;;;17.80;99.90;;;;;;4991589;28;20497;-49
2023/09/10 05:25:29;;;;;;;23.98;14.38;;;17.70;99.90;;;;;;4992397;28;20035;-50
2023/09/10 05:27:54;;;;;;;17.40;14.15;;;17.60;99.90;;;;;;4992852;28;20026;-46
2023/09/10 05:30:20;;;;;;;16.77;14.65;;;17.70;99.90;;;;;;4992449;28;20026;-50
2023/09/10 05:32:45;;;;;;;15.32;13.68;;;17.70;99.90;;;;;;4992754;28;20498;-46
2023/09/10 05:35:11;;;;;;;16.00;14.15;;;17.70;99.90;;;;;;4992180;28;20045;-46
2023/09/10 05:37:37;;;;;;;16.55;14.18;;;17.60;99.90;;;;;;4992707;28;20019;-49
2023/09/10 05:40:03;;;;;;;16.38;14.70;;;17.60;99.90;;;;;;4992632;28;20126;-46
2023/09/10 05:42:29;;;;;;;15.68;14.00;;;17.60;99.90;;;;;;4992546;28;20077;-46
2023/09/10 05:44:54;;;;;;;16.90;15.10;;;17.60;99.90;;;;;;4990686;28;20437;-46
2023/09/10 05:47:20;;;;;;;19.58;14.88;;;17.70;99.90;;;;;;4992465;28;20022;-46
2023/09/10 05:49:47;;;;;;;16.45;13.82;;;17.80;99.90;;;;;;4992432;28;20022;-46
2023/09/10 05:52:13;;;;;;;14.65;13.15;;;17.70;99.90;;;;;;4992425;28;20097;-46
2023/09/10 05:57:08;;;;;;;16.02;14.38;;;17.50;99.90;;;;;;4991597;23;20518;-48
2023/09/10 05:59:33;;;;;;;15.18;13.65;;;17.50;99.90;;;;;;4973582;28;20031;-48
2023/09/10 06:01:59;;;;;;;14.50;13.00;;;17.60;99.90;;;;;;4973463;28;20090;-46
2023/09/10 06:04:24;;;;;;;16.98;12.20;;;17.60;99.90;;;;;;4973171;28;20027;-47
2023/09/10 06:06:50;;;;;;;14.82;13.32;;;17.70;99.90;;;;;;4973113;28;20038;-48
2023/09/10 06:09:15;;;;;;;13.43;12.13;;;17.70;99.90;;;;;;4973137;28;20035;-47
2023/09/10 06:11:41;;;;;;;14.10;12.63;;;17.70;99.90;;;;;;4971993;28;20030;-48
2023/09/10 06:14:07;;;;;;;14.02;11.85;;;17.70;99.90;;;;;;4972953;28;20027;-50
2023/09/10 06:16:32;;;;;;;13.80;12.40;;;17.80;99.90;;;;;;4972948;28;20045;-48
2023/09/10 06:18:58;;;;;;;14.00;12.52;;;17.90;99.90;;;;;;4971743;28;20034;-50
2023/09/10 06:21:23;;;;;;;14.52;12.65;;;18.00;99.90;;;;;;4973065;28;20033;-50
2023/09/10 06:23:49;;;;;;;13.55;12.15;;;18.10;99.90;;;;;;4973180;28;20061;-48
2023/09/10 06:26:14;;;;;;;19.02;12.63;;;18.10;99.90;;;;;;4972950;28;20062;-45
2023/09/10 06:28:40;;;;;;;13.75;12.25;;;18.10;99.90;;;;;;4972931;28;20026;-48
2023/09/10 06:31:06;;;;;;;13.82;12.35;;;18.20;99.90;;;;;;4972992;28;20054;-51
2023/09/10 06:33:33;;;;;;;13.18;11.77;;;18.30;99.90;;;;;;4972545;28;20143;-52
2023/09/10 06:35:59;;;;;;;13.23;11.85;;;18.40;99.90;;;;;;4972371;28;20019;-47
2023/09/10 06:38:25;;;;;;;15.27;11.00;;;18.60;99.90;;;;;;4972505;28;20058;-47
2023/09/10 06:40:51;;;;;;;11.82;10.50;;;18.80;99.90;;;;;;4971323;28;20105;-48
2023/09/10 06:43:16;;;;;;;16.73;11.88;;;19.00;99.90;;;;;;4972431;28;20026;-49
2023/09/10 06:45:43;;;;;;;13.65;11.13;;;19.40;99.90;;;;;;4972107;28;20027;-49
2023/09/10 06:48:09;;;;;;;14.73;11.38;;;19.70;99.90;;;;;;4972463;28;20401;-46
2023/09/10 06:50:34;;;;;;;16.58;10.90;;;20.00;99.90;;;;;;4972509;28;20030;-50
2023/09/10 06:53:00;;;;;;;14.82;10.95;;;20.20;99.90;;;;;;4972382;28;20054;-50
2023/09/10 06:55:25;;;;;;;11.55;10.35;;;20.50;99.90;;;;;;4971779;28;20049;-48
2023/09/10 06:57:51;;;;;;;13.13;9.23;;;21.00;99.90;;;;;;4971115;28;20411;-48
2023/09/10 07:00:18;;;;;;;11.45;9.20;;;21.90;99.90;;;;;;4971099;28;20038;-48
2023/09/10 07:02:43;;;;;;;10.05;8.90;;;22.80;99.90;;;;;;4971055;28;20026;-47
2023/09/10 07:05:09;;;;;;;12.15;8.88;;;23.50;99.90;;;;;;4971950;28;20389;-52
2023/09/10 07:07:35;;;;;;;11.68;9.50;;;24.10;99.90;;;;;;4972488;28;20033;-49
2023/09/10 07:10:01;;;;;;;12.07;8.20;;;24.70;99.90;;;;;;4972183;28;20042;-48
2023/09/10 07:12:26;;;;;;;9.90;8.65;;;25.30;99.90;;;;;;4970916;28;20031;-47
2023/09/10 07:14:52;;;;;;;9.98;7.75;;;25.60;99.90;;;;;;4971875;28;20035;-46
2023/09/10 07:17:17;;;;;;;9.50;7.57;;;26.00;99.90;;;;;;4972167;28;20386;-48
2023/09/10 07:19:43;;;;;;;11.38;7.35;;;26.60;99.90;;;;;;4972358;28;20023;-50
2023/09/10 07:22:09;;;;;;;10.50;7.50;;;27.50;99.90;;;;;;4970938;28;20027;-47
2023/09/10 07:24:34;;;;;;;7.75;6.60;;;28.30;99.90;;;;;;4972038;28;20059;-51
2023/09/10 07:27:01;;;;;;;9.93;7.10;;;28.90;99.90;;;;;;4968350;28;20034;-47
2023/09/10 07:29:27;;;;;;;10.60;7.15;;;28.90;99.30;;;;;;4970663;28;20029;-47
2023/09/10 07:31:53;;;;;;;7.85;6.65;;;29.10;98.80;;;;;;4970104;28;20018;-44
2023/09/10 07:34:19;;;;;;;10.88;7.82;;;29.50;98.10;;;;;;4974885;28;20589;-59
2023/09/10 07:36:46;;;;;;;9.77;6.70;;;29.60;97.90;;;;;;4974850;28;20081;-53
2023/09/10 07:39:12;;;;;;;6.03;5.50;;;29.70;97.70;;;;;;4974875;28;20023;-61
2023/09/10 07:41:37;;;;;;;9.38;5.82;;;30.00;97.40;;;;;;4975069;28;20029;-57
2023/09/10 07:44:03;;;;;;;7.25;6.60;;;30.70;96.30;;;;;;4975202;28;20035;-55
2023/09/10 07:46:29;;;;;;;7.25;5.93;;;30.90;95.50;;;;;;4975080;28;20427;-53
2023/09/10 07:48:55;;;;;;;7.40;6.30;;;31.20;94.90;;;;;;4974915;28;20057;-53
2023/09/10 07:51:21;;;;;;;7.85;5.90;;;31.40;94.20;;;;;;4975234;28;20030;-53
2023/09/10 07:53:47;;;;;;;7.47;6.20;;;31.40;94.50;;;;;;4973728;28;20034;-53
2023/09/10 07:56:13;;;;;;;8.73;6.07;;;31.40;94.40;;;;;;4975018;28;20035;-53
2023/09/10 07:58:38;;;;;;;7.80;5.80;;;31.40;94.10;;;;;;4973824;28;20047;-56
2023/09/10 08:01:04;;;;;;;6.65;6.07;;;31.40;93.80;;;;;;4975244;28;20027;-56
2023/09/10 08:03:29;;;;;;;6.38;5.78;;;31.40;93.90;;;;;;4974685;28;20043;-56
2023/09/10 08:05:55;;;;;;;6.55;5.30;;;31.40;94.10;;;;;;4974773;28;20115;-54
2023/09/10 08:08:20;;;;;;;6.78;5.40;;;31.90;94.00;;;;;;4974843;28;20030;-57
2023/09/10 08:10:46;;;;;;;6.20;5.35;;;32.00;93.50;;;;;;4974920;28;20437;-54
2023/09/10 08:13:12;;;;;;;5.72;5.22;;;32.20;93.30;;;;;;4974601;28;20517;-56
2023/09/10 08:15:39;;;;;;;6.90;5.82;;;32.30;93.00;;;;;;4972259;28;20158;-49
2023/09/10 08:18:10;;;;;;;6.85;5.35;;;32.50;92.00;;;;;;4973533;28;20026;-52
2023/09/10 08:20:36;;;;;;;6.45;5.82;;;32.20;92.20;;;;;;4974302;28;20109;-56
2023/09/10 08:23:03;;;;;;;7.22;6.28;;;32.30;92.40;;;;;;4968327;28;20027;-57
2023/09/10 08:25:28;;;;;;;5.55;5.13;;;32.50;91.70;;;;;;4973703;28;20035;-53
2023/09/10 08:27:54;;;;;;;6.43;5.80;;;32.60;91.70;;;;;;4974197;28;20376;-52
2023/09/10 08:30:19;;;;;;;7.05;4.93;;;32.30;91.80;;;;;;4973927;28;20157;-56
2023/09/10 08:32:47;;;;;;;6.40;5.80;;;32.20;92.20;;;;;;4973379;28;20064;-55
2023/09/10 08:35:13;;;;;;;6.78;6.13;;;31.80;92.40;;;;;;4973178;28;20398;-54
2023/09/10 08:37:38;;;;;;;6.63;5.70;;;31.10;92.70;;;;;;4974595;28;20029;-54
2023/09/10 08:40:04;;;;;;;7.18;6.28;;;30.90;93.80;;;;;;4974356;28;20027;-56
2023/09/10 08:42:39;;;;;;;8.43;5.75;;;31.20;94.00;;;;;;4973900;28;20050;-55
2023/09/10 08:45:10;;;;;;;8.05;5.78;;;31.70;93.50;;;;;;4974018;28;20502;-52
2023/09/10 08:47:40;;;;;;;6.18;5.45;;;32.40;93.10;;;;;;4974543;28;20038;-54
2023/09/10 08:50:14;;;;;;;6.45;5.32;;;32.90;92.00;;;;;;4974061;28;20114;-53
2023/09/10 08:52:44;;;;;;;7.30;6.40;;;33.40;91.50;;;;;;4960860;28;20035;-55
2023/09/10 08:55:11;;;;;;;6.35;5.78;;;33.60;90.90;;;;;;4954310;28;20043;-55
2023/09/10 08:57:39;;;;;;;9.15;5.90;;;33.80;90.70;;;;;;4954680;28;20031;-51
2023/09/10 09:00:12;;;;;;;6.13;5.53;;;33.70;90.40;;;;;;4953310;28;20428;-54
2023/09/10 09:02:38;;;;;;;8.00;5.30;;;34.00;90.00;;;;;;4954716;28;20031;-54
2023/09/10 09:05:05;;;;;;;5.32;4.82;;;34.20;88.80;;;;;;4959172;28;20043;-49
2023/09/10 09:07:36;;;;;;;5.47;4.80;;;34.60;89.00;;;;;;4973887;28;20034;-52
2023/09/10 09:10:05;;;;;;;4.60;4.22;;;34.90;87.20;;;;;;4972535;28;20081;-51
2023/09/10 09:12:35;;;;;;;5.95;4.78;;;34.70;87.60;;;;;;4972338;28;20485;-51
2023/09/10 09:15:01;;;;;;;6.18;5.57;;;34.80;88.40;;;;;;4973382;28;20078;-56
2023/09/10 09:17:28;;;;;;;6.03;5.50;;;34.80;87.20;;;;;;4973852;28;20458;-51
2023/09/10 09:19:57;;;;;;;6.22;5.72;;;34.80;87.50;;;;;;4973249;28;20070;-48
2023/09/10 09:22:28;;;;;;;6.88;6.20;;;34.80;87.20;;;;;;4972110;28;20034;-48
2023/09/10 09:24:55;;;;;;;6.18;5.65;;;34.30;88.20;;;;;;4972850;28;20026;-50
2023/09/10 09:27:23;;;;;;;7.07;5.45;;;34.00;89.00;;;;;;4973477;28;20026;-50
2023/09/10 09:29:49;;;;;;;9.07;5.65;;;33.40;90.00;;;;;;4973543;28;20027;-49
2023/09/10 09:32:15;;;;;;;8.57;5.93;;;32.90;90.50;;;;;;4973363;28;20101;-48
2023/09/10 09:34:41;;;;;;;7.70;6.55;;;32.10;91.30;;;;;;4973079;28;20460;-50
2023/09/10 09:37:06;;;;;;;6.32;5.82;;;31.70;92.40;;;;;;4973190;28;20553;-53
2023/09/10 09:39:32;;;;;;;6.85;6.22;;;31.60;92.60;;;;;;4973409;28;20042;-53
2023/09/10 09:41:58;;;;;;;10.85;6.30;;;31.50;92.50;;;;;;4973228;28;20121;-47
2023/09/10 09:44:24;;;;;;;8.02;7.22;;;31.40;92.50;;;;;;4972759;28;20114;-50
2023/09/10 09:46:50;;;;;;;9.95;6.60;;;31.50;92.30;;;;;;4972473;28;20033;-49
2023/09/10 09:49:16;;;;;;;7.70;6.90;;;31.60;92.40;;;;;;4972487;28;20545;-47
2023/09/10 09:51:43;;;;;;;9.63;6.68;;;31.60;92.30;;;;;;4972935;28;20034;-48
2023/09/10 09:54:09;;;;;;;8.15;6.40;;;31.40;92.60;;;;;;4966320;28;20394;-52
2023/09/10 09:56:38;;;;;;;6.68;6.07;;;31.30;92.80;;;;;;4959950;28;20855;-55
2023/09/10 09:59:04;;;;;;;6.95;6.32;;;31.20;92.70;;;;;;4970640;28;20103;-55
2023/09/10 10:01:30;;;;;;;9.32;6.53;;;31.00;93.20;;;;;;4972278;28;20045;-51
2023/09/10 10:03:57;;;;;;;9.65;6.28;;;31.00;93.10;;;;;;4959442;28;20071;-51
2023/09/10 10:06:23;;;;;;;7.53;5.95;;;31.10;93.70;;;;;;4952707;28;20551;-53
2023/09/10 10:08:50;;;;;;;7.22;6.53;;;31.20;93.80;;;;;;4952220;29;20122;-54
2023/09/10 10:11:37;;;;;;;10.60;6.05;;;31.20;94.00;;;;;;4953474;28;20042;-49
2023/09/10 10:14:03;;;;;;;6.72;6.13;;;31.30;94.20;;;;;;4953287;28;20058;-52
2023/09/10 10:16:30;;;;;;;6.43;5.82;;;31.30;94.10;;;;;;4969253;28;20035;-51
2023/09/10 10:18:56;;;;;;;6.25;5.65;;;31.30;93.70;;;;;;4972866;28;20086;-53
2023/09/10 10:21:23;;;;;;;7.20;6.18;;;31.20;93.80;;;;;;4971874;28;20034;-51
2023/09/10 10:23:51;;;;;;;7.75;6.95;;;31.10;94.00;;;;;;4972721;28;20038;-52
2023/09/10 10:26:16;;;;;;;6.95;5.90;;;31.10;94.40;;;;;;4972752;28;20027;-52
2023/09/10 10:28:46;;;;;;;8.52;6.75;;;30.80;94.30;;;;;;4972419;28;20415;-49
2023/09/10 10:31:16;;;;;;;9.18;6.30;;;30.70;94.60;;;;;;4963543;28;20042;-56
2023/09/10 10:33:50;;;;;;;6.93;6.32;;;30.70;94.60;;;;;;4953385;28;20027;-51
2023/09/10 10:36:43;;;;;;;7.30;6.63;;;30.50;94.50;;;;;;4969842;28;20058;-52
2023/09/10 10:39:10;;;;;;;39.55;30.42;;;30.50;95.30;;;;;;4973160;28;20105;-54
2023/09/10 10:41:42;;;;;;;7.90;6.32;;;30.50;96.00;;;;;;4972397;28;20031;-55
2023/09/10 10:44:24;;;;;;;9.60;6.25;;;30.50;95.00;;;;;;4971083;28;20034;-50
2023/09/10 10:46:58;;;;;;;12.25;5.85;;;30.50;94.20;;;;;;4967946;28;20155;-54
2023/09/10 10:49:25;;;;;;;8.60;5.68;;;30.20;94.20;;;;;;4960702;28;20426;-55
2023/09/10 10:51:54;;;;;;;8.10;6.32;;;30.10;94.50;;;;;;4973386;28;20031;-53
2023/09/10 10:54:21;;;;;;;6.50;5.90;;;30.00;94.90;;;;;;4973155;28;20023;-54
2023/09/10 10:56:46;;;;;;;7.05;5.57;;;29.90;95.70;;;;;;4973441;28;20097;-53
2023/09/10 10:59:13;;;;;;;8.65;6.97;;;29.90;95.70;;;;;;4976917;28;20431;-55
2023/09/10 11:01:39;;;;;;;6.85;6.22;;;29.90;96.30;;;;;;4976250;28;20051;-56
2023/09/10 11:04:18;;;;;;;8.52;7.35;;;29.90;96.40;;;;;;4976828;28;20018;-56
2023/09/10 11:07:16;;;;;;;13.20;5.78;;;29.90;96.80;;;;;;4976344;28;20418;-52
2023/09/10 11:09:41;;;;;;;6.72;5.85;;;29.80;95.90;;;;;;4976023;28;20023;-48
2023/09/10 11:12:07;;;;;;;8.70;6.03;;;29.70;96.40;;;;;;4974739;28;20038;-55
2023/09/10 11:15:01;;;;;;;8.55;5.55;;;29.70;95.70;;;;;;4965879;28;20042;-52
2023/09/10 11:17:34;;;;;;;8.70;5.20;;;29.50;96.10;;;;;;4976092;28;20035;-51
2023/09/10 11:20:01;;;;;;;8.75;5.50;;;29.40;96.50;;;;;;4976005;28;20380;-52
2023/09/10 11:23:09;;;;;;;9.70;6.00;;;29.30;97.60;;;;;;4973727;28;20042;-52
2023/09/10 11:25:35;;;;;;;44.58;37.05;;;29.20;97.20;;;;;;4971607;28;20482;-53
2023/09/10 11:28:01;;;;;;;13.45;10.77;;;29.10;96.60;;;;;;4975625;28;20046;-52
2023/09/10 11:30:26;;;;;;;6.70;5.70;;;29.00;97.10;;;;;;4975142;28;20027;-53
2023/09/10 11:33:28;;;;;;;7.32;5.18;;;28.90;97.50;;;;;;4973997;28;20097;-52
2023/09/10 11:35:57;;;;;;;8.10;5.35;;;28.70;97.70;;;;;;4961287;28;20478;-49
2023/09/10 11:38:24;;;;;;;9.05;5.45;;;28.70;98.10;;;;;;4975551;28;20022;-53
2023/09/10 11:40:50;;;;;;;10.68;5.85;;;28.60;98.60;;;;;;4963330;28;20078;-52
2023/09/10 11:43:17;;;;;;;9.65;5.97;;;28.60;98.80;;;;;;4956334;28;20046;-50
2023/09/10 11:45:43;;;;;;;7.03;5.32;;;28.50;99.90;;;;;;4974449;28;20037;-45
2023/09/10 11:48:08;;;;;;;15.07;6.45;;;28.50;99.90;;;;;;4975814;28;20019;-54
2023/09/10 11:50:34;;;;;;;11.50;5.72;;;28.50;99.50;;;;;;4975875;28;20093;-54
2023/09/10 11:53:00;;;;;;;17.70;6.82;;;28.60;98.80;;;;;;4976673;28;20077;-51
2023/09/10 11:55:25;;;;;;;11.18;5.85;;;28.50;98.30;;;;;;4975841;28;20034;-50
2023/09/10 11:57:53;;;;;;;8.23;5.60;;;28.50;98.00;;;;;;4956442;28;20174;-53
2023/09/10 12:00:19;;;;;;;7.82;5.03;;;28.40;98.80;;;;;;4959655;28;20031;-52
2023/09/10 12:02:45;;;;;;;10.93;4.90;;;28.40;99.60;;;;;;4975160;28;20486;-51
2023/09/10 12:05:10;;;;;;;9.00;6.07;;;28.40;98.40;;;;;;4973938;28;20030;-49
2023/09/10 12:07:36;;;;;;;6.72;5.60;;;28.40;97.80;;;;;;4974565;28;20041;-48
2023/09/10 12:10:03;;;;;;;7.88;5.18;;;28.40;97.60;;;;;;4962064;28;20027;-47
2023/09/10 12:12:32;;;;;;;12.95;5.13;;;28.40;97.20;;;;;;4954231;28;20545;-49
2023/09/10 12:14:59;;;;;;;12.55;5.10;;;28.50;97.00;;;;;;4955065;28;20042;-47
2023/09/10 12:17:25;;;;;;;15.38;4.88;;;28.40;97.10;;;;;;4955650;28;20027;-47
2023/09/10 12:19:51;;;;;;;13.18;4.72;;;28.50;96.10;;;;;;4955536;28;20034;-48
2023/09/10 12:22:19;;;;;;;12.68;4.70;;;28.50;95.80;;;;;;4955390;28;20034;-46
2023/09/10 12:24:45;;;;;;;9.73;4.60;;;28.50;95.20;;;;;;4954807;28;20372;-51
2023/09/10 12:27:13;;;;;;;8.00;4.95;;;28.50;95.00;;;;;;4955513;28;20034;-52
2023/09/10 12:29:39;;;;;;;9.85;4.38;;;28.50;94.70;;;;;;4955307;28;20027;-53
2023/09/10 12:32:05;;;;;;;11.48;4.97;;;28.50;94.20;;;;;;4954058;28;20027;-48
2023/09/10 12:34:32;;;;;;;11.25;4.38;;;28.50;94.40;;;;;;4955226;29;20027;-50
2023/09/10 12:36:58;;;;;;;12.18;4.47;;;28.50;94.70;;;;;;4955181;29;20118;-48
2023/09/10 12:39:26;;;;;;;17.88;5.25;;;28.60;95.20;;;;;;4955329;28;20076;-49